Time;durP1;ratioP1;P1;durP2;ratioP2;P2;SDS_P1;SDS_P2;PMS_P1;PMS_P2;Temp;Humidity;BMP_temperature;BMP_pressure;BME280_temperature;BME280_humidity;BME280_pressure;Samples;Min_cycle;Max_cycle;Signal;HPM_P1;HPM_P2
2022/09/06 00:01:09;;;;;;;2.60;2.50;;;;;;;16.04;87.49;102221.47;5033119;28;20466;-40
2022/09/06 00:03:39;;;;;;;2.37;2.27;;;;;;;16.07;87.52;102222.94;5032755;28;20432;-41
2022/09/06 00:06:09;;;;;;;2.70;2.50;;;;;;;16.05;87.33;102218.59;5033204;28;20446;-45
2022/09/06 00:08:37;;;;;;;3.27;2.57;;;;;;;16.02;87.59;102216.28;5033482;28;20434;-45
2022/09/06 00:11:05;;;;;;;3.37;2.67;;;;;;;16.02;87.43;102213.59;5032080;28;20472;-42
2022/09/06 00:13:33;;;;;;;2.57;2.30;;;;;;;16.02;87.45;102218.97;5035023;28;20639;-42
2022/09/06 00:16:06;;;;;;;2.70;2.60;;;;;;;16.05;87.43;102217.75;5036358;28;20479;-42
2022/09/06 00:18:34;;;;;;;2.57;2.37;;;;;;;16.05;87.37;102217.75;5036447;28;20439;-42
2022/09/06 00:21:04;;;;;;;4.50;2.90;;;;;;;16.04;87.36;102208.84;5035491;28;20455;-40
2022/09/06 00:23:32;;;;;;;2.90;2.70;;;;;;;16.02;87.44;102200.16;5035456;28;20432;-42
2022/09/06 00:26:03;;;;;;;2.77;2.57;;;;;;;16.00;87.88;102204.91;5036348;28;20424;-40
2022/09/06 00:28:31;;;;;;;3.17;2.30;;;;;;;16.02;87.50;102208.22;5036321;28;20436;-44
2022/09/06 00:31:07;;;;;;;3.67;2.40;;;;;;;16.03;87.21;102209.88;5035160;28;20468;-42
2022/09/06 00:33:35;;;;;;;3.23;2.90;;;;;;;16.02;87.42;102205.53;5035561;28;20446;-42
2022/09/06 00:36:04;;;;;;;2.60;2.40;;;;;;;16.01;87.59;102211.09;5035501;28;20478;-43
2022/09/06 00:38:32;;;;;;;2.77;2.60;;;;;;;16.01;87.68;102209.22;5035969;28;20436;-46
2022/09/06 00:41:01;;;;;;;4.43;2.80;;;;;;;15.99;87.33;102214.00;5036981;28;20526;-40
2022/09/06 00:43:32;;;;;;;2.70;2.50;;;;;;;15.98;87.38;102203.41;5037569;28;20437;-40
2022/09/06 00:46:01;;;;;;;2.83;2.60;;;;;;;15.97;87.46;102199.91;5035840;28;20515;-40
2022/09/06 00:48:29;;;;;;;5.97;2.97;;;;;;;15.98;87.31;102187.25;5035400;28;20444;-42
2022/09/06 00:51:01;;;;;;;3.80;2.63;;;;;;;15.97;87.21;102194.53;5035033;28;20468;-42
2022/09/06 00:53:31;;;;;;;2.90;2.70;;;;;;;15.97;87.04;102185.63;5043708;28;20427;-42
2022/09/06 00:55:59;;;;;;;2.90;2.70;;;;;;;15.96;87.20;102183.94;5050380;28;20471;-44
2022/09/06 00:58:28;;;;;;;2.70;2.50;;;;;;;15.90;87.40;102182.88;5055689;28;20437;-44
2022/09/06 01:00:55;;;;;;;6.70;3.23;;;;;;;15.89;87.36;102175.81;5054563;28;20470;-43
2022/09/06 01:03:25;;;;;;;2.73;2.53;;;;;;;15.89;87.46;102177.69;5054912;28;20462;-43
2022/09/06 01:06:00;;;;;;;3.73;2.60;;;;;;;15.84;87.91;102172.91;5055118;28;20423;-45
2022/09/06 01:08:43;;;;;;;4.80;2.70;;;;;;;15.87;87.73;102172.50;5055000;28;20431;-42
2022/09/06 01:11:23;;;;;;;2.97;2.77;;;;;;;15.86;87.60;102170.03;5055234;28;21000;-42
2022/09/06 01:13:59;;;;;;;2.63;2.43;;;;;;;15.80;88.23;102171.63;5056096;28;20434;-42
2022/09/06 01:16:36;;;;;;;4.27;2.50;;;;;;;15.82;87.96;102166.91;5056044;28;20473;-43
2022/09/06 01:19:32;;;;;;;2.43;2.33;;;;;;;15.83;87.77;102173.13;5055639;28;20797;-41
2022/09/06 01:22:13;;;;;;;2.70;2.50;;;;;;;15.77;88.10;102166.63;5054715;28;20447;-39
2022/09/06 01:25:03;;;;;;;4.67;3.00;;;;;;;15.74;88.34;102167.03;5054928;28;20955;-43
2022/09/06 01:28:02;;;;;;;3.10;2.73;;;;;;;15.74;88.08;102158.97;5054940;28;20431;-39
2022/09/06 01:30:34;;;;;;;2.43;2.33;;;;;;;15.73;88.24;102146.56;5054429;28;20463;-43
2022/09/06 01:33:10;;;;;;;2.87;2.70;;;;;;;15.73;88.55;102159.16;5054404;28;20474;-43
2022/09/06 01:35:41;;;;;;;3.03;2.83;;;;;;;15.72;88.40;102163.72;5054686;28;20430;-40
2022/09/06 01:38:10;;;;;;;4.03;2.73;;;;;;;15.72;88.20;102162.88;5054714;28;20434;-42
2022/09/06 01:40:38;;;;;;;2.80;2.70;;;;;;;15.70;88.19;102162.25;5054241;28;20463;-41
2022/09/06 01:43:10;;;;;;;3.60;2.90;;;;;;;15.73;88.08;102169.94;5054583;28;20448;-42
2022/09/06 01:45:44;;;;;;;2.87;2.70;;;;;;;15.69;87.81;102172.16;5054291;28;20442;-39
2022/09/06 01:48:23;;;;;;;7.10;2.80;;;;;;;15.71;87.63;102177.38;5054747;28;20466;-43
2022/09/06 01:51:08;;;;;;;2.87;2.60;;;;;;;15.66;87.50;102164.50;5053929;28;20537;-43
2022/09/06 01:54:01;;;;;;;2.67;2.47;;;;;;;15.64;87.41;102166.56;5043270;28;20435;-42
2022/09/06 01:56:38;;;;;;;4.20;3.23;;;;;;;15.64;87.09;102163.88;5053417;28;20475;-42
2022/09/06 01:59:28;;;;;;;3.10;2.90;;;;;;;15.61;87.09;102169.63;5054613;28;20433;-42
2022/09/06 02:02:03;;;;;;;3.30;3.03;;;;;;;15.60;86.83;102170.66;5054327;28;20446;-43
2022/09/06 02:04:40;;;;;;;3.10;2.90;;;;;;;15.61;86.85;102169.63;5053998;28;20945;-42
2022/09/06 02:07:13;;;;;;;3.50;2.73;;;;;;;15.61;86.75;102169.63;5054053;28;20936;-42
2022/09/06 02:09:45;;;;;;;2.83;2.63;;;;;;;15.60;86.67;102159.91;5053600;28;20427;-40
2022/09/06 02:12:14;;;;;;;3.40;2.90;;;;;;;15.60;86.73;102162.59;5053920;28;20452;-42
2022/09/06 02:14:48;;;;;;;4.43;3.03;;;;;;;15.60;86.40;102167.13;5054027;28;20836;-41
2022/09/06 02:17:21;;;;;;;3.53;2.70;;;;;;;15.60;86.33;102161.75;5053784;28;20467;-42
2022/09/06 02:19:54;;;;;;;2.73;2.60;;;;;;;15.57;86.24;102165.66;5053196;28;20462;-40
2022/09/06 02:22:27;;;;;;;2.60;2.40;;;;;;;15.55;86.27;102173.09;5053348;28;20442;-42
2022/09/06 02:24:58;;;;;;;3.30;3.00;;;;;;;15.54;86.27;102166.06;5053674;28;20450;-41
2022/09/06 02:27:27;;;;;;;5.80;3.30;;;;;;;15.55;85.89;102166.88;5053696;28;20450;-40
2022/09/06 02:30:01;;;;;;;4.57;3.37;;;;;;;15.54;85.55;102165.22;5053061;28;20524;-41
2022/09/06 02:32:32;;;;;;;4.40;2.70;;;;;;;15.53;85.60;102169.75;5052996;28;20992;-39
2022/09/06 02:35:08;;;;;;;3.10;2.80;;;;;;;15.55;85.27;102173.09;5053338;28;20443;-41
2022/09/06 02:37:36;;;;;;;3.60;3.30;;;;;;;15.52;85.15;102165.44;5053653;28;20500;-42
2022/09/06 02:40:04;;;;;;;2.60;2.50;;;;;;;15.52;85.13;102168.13;5053273;28;20486;-40
2022/09/06 02:42:32;;;;;;;2.77;2.57;;;;;;;15.51;85.06;102163.75;5053104;28;20538;-43
2022/09/06 02:45:01;;;;;;;3.67;2.87;;;;;;;15.48;84.97;102172.22;5053115;28;20509;-39
2022/09/06 02:47:29;;;;;;;4.60;2.90;;;;;;;15.49;84.63;102168.50;5053539;28;20427;-40
2022/09/06 02:49:57;;;;;;;3.10;2.90;;;;;;;15.49;84.74;102168.50;5052776;28;20462;-44
2022/09/06 02:52:24;;;;;;;2.77;2.50;;;;;;;15.48;84.68;102158.75;5045835;28;20447;-44
2022/09/06 02:54:52;;;;;;;3.20;3.00;;;;;;;15.49;84.74;102155.06;5044809;28;20434;-44
2022/09/06 02:57:20;;;;;;;2.70;2.50;;;;;;;15.47;84.53;102149.88;5052924;28;20474;-42
2022/09/06 02:59:47;;;;;;;3.37;3.07;;;;;;;15.47;84.54;102155.25;5052818;28;20548;-41
2022/09/06 03:02:17;;;;;;;2.93;2.70;;;;;;;15.47;84.34;102157.94;5052838;28;20474;-43
2022/09/06 03:04:44;;;;;;;2.60;2.50;;;;;;;15.48;84.35;102153.38;5052981;28;20431;-40
2022/09/06 03:07:12;;;;;;;3.00;2.80;;;;;;;15.49;84.34;102157.75;5053806;28;20438;-42
2022/09/06 03:09:40;;;;;;;3.53;3.20;;;;;;;15.48;84.22;102150.69;5052413;28;20435;-40
2022/09/06 03:12:08;;;;;;;5.10;3.10;;;;;;;15.49;84.13;102158.59;5036132;28;20535;-40
2022/09/06 03:14:36;;;;;;;3.93;2.53;;;;;;;15.49;83.86;102158.59;5038715;28;20431;-43
2022/09/06 03:17:03;;;;;;;3.30;3.00;;;;;;;15.51;83.85;102153.00;5041451;28;20829;-41
2022/09/06 03:19:32;;;;;;;5.63;3.00;;;;;;;15.50;83.63;102143.28;5051829;28;20431;-43
2022/09/06 03:22:00;;;;;;;3.70;3.40;;;;;;;15.50;83.77;102141.41;5052561;28;20474;-41
2022/09/06 03:24:28;;;;;;;3.10;2.90;;;;;;;15.50;83.27;102140.59;5052702;28;20837;-41
2022/09/06 03:26:55;;;;;;;3.03;2.77;;;;;;;15.48;83.12;102124.66;5052914;28;20431;-41
2022/09/06 03:29:23;;;;;;;2.67;2.57;;;;;;;15.50;82.92;102114.53;5053134;28;20439;-43
2022/09/06 03:31:51;;;;;;;3.20;2.90;;;;;;;15.49;82.84;102117.41;5052342;28;20471;-42
2022/09/06 03:34:18;;;;;;;3.53;3.23;;;;;;;15.50;82.49;102113.72;5052543;28;20466;-42
2022/09/06 03:36:47;;;;;;;3.07;2.87;;;;;;;15.50;82.61;102117.22;5053158;28;20520;-46
2022/09/06 03:39:15;;;;;;;8.03;3.50;;;;;;;15.50;82.02;102111.03;5053048;28;20438;-43
2022/09/06 03:41:43;;;;;;;3.37;3.07;;;;;;;15.48;82.26;102113.06;5052295;28;20463;-42
2022/09/06 03:44:10;;;;;;;3.07;2.87;;;;;;;15.51;82.26;102096.53;5052900;28;20978;-42
2022/09/06 03:46:38;;;;;;;3.73;3.33;;;;;;;15.47;82.66;102095.28;5053642;28;20526;-42
2022/09/06 03:49:06;;;;;;;3.80;3.50;;;;;;;15.48;82.61;102100.44;5056679;28;20434;-45
2022/09/06 03:51:34;;;;;;;3.30;3.10;;;;;;;15.46;82.63;102091.72;5053364;28;20467;-40
2022/09/06 03:54:03;;;;;;;3.30;3.00;;;;;;;15.47;82.84;102090.72;5044443;28;20424;-41
2022/09/06 03:56:31;;;;;;;3.80;3.50;;;;;;;15.46;82.60;102098.97;5056387;28;20944;-44
2022/09/06 03:58:59;;;;;;;6.73;2.97;;;;;;;15.49;82.46;102090.53;5056181;28;20474;-43
2022/09/06 04:01:27;;;;;;;3.53;3.37;;;;;;;15.49;82.09;102087.84;5056162;28;20470;-39
2022/09/06 04:03:55;;;;;;;5.40;3.60;;;;;;;15.48;82.16;102083.50;5056498;28;20441;-39
2022/09/06 04:06:22;;;;;;;3.50;3.20;;;;;;;15.44;81.89;102087.59;5056344;28;20459;-40
2022/09/06 04:08:50;;;;;;;4.60;3.47;;;;;;;15.45;81.62;102079.31;5056086;28;20453;-45
2022/09/06 04:11:19;;;;;;;4.07;3.60;;;;;;;15.47;81.43;102092.59;5055412;28;20470;-42
2022/09/06 04:13:47;;;;;;;4.90;3.27;;;;;;;15.47;81.33;102092.59;5055381;28;20438;-44
2022/09/06 04:16:16;;;;;;;3.80;3.53;;;;;;;15.46;81.10;102089.03;5056141;28;20437;-43
2022/09/06 04:18:44;;;;;;;3.40;3.10;;;;;;;15.48;81.01;102089.69;5055778;28;21007;-42
2022/09/06 04:21:11;;;;;;;2.60;2.50;;;;;;;15.53;80.87;102099.84;5055193;28;20470;-41
2022/09/06 04:23:39;;;;;;;3.77;3.30;;;;;;;15.56;80.68;102098.66;5055733;28;20439;-46
2022/09/06 04:26:07;;;;;;;3.30;3.10;;;;;;;15.57;80.37;102103.81;5055850;28;20436;-46
2022/09/06 04:28:36;;;;;;;5.33;3.47;;;;;;;15.60;80.45;102100.75;5055667;28;20434;-43
2022/09/06 04:31:04;;;;;;;3.40;3.10;;;;;;;15.60;80.39;102103.44;5054860;28;20471;-42
2022/09/06 04:33:34;;;;;;;3.63;3.33;;;;;;;15.62;80.25;102103.25;5055193;28;20427;-42
2022/09/06 04:36:05;;;;;;;3.80;3.50;;;;;;;15.64;80.05;102109.25;5055979;28;20840;-39
2022/09/06 04:38:36;;;;;;;4.03;3.77;;;;;;;15.65;79.98;102106.34;5056126;28;20467;-40
2022/09/06 04:41:04;;;;;;;3.63;3.43;;;;;;;15.66;79.66;102102.63;5055783;28;20474;-41
2022/09/06 04:43:32;;;;;;;4.43;4.00;;;;;;;15.69;79.35;102104.09;5056337;28;20514;-39
2022/09/06 04:46:05;;;;;;;3.87;3.67;;;;;;;15.70;79.00;102106.63;5056126;28;20805;-40
2022/09/06 04:48:32;;;;;;;3.77;3.60;;;;;;;15.72;78.73;102107.22;5056184;28;20423;-42
2022/09/06 04:51:00;;;;;;;4.30;3.90;;;;;;;15.75;78.37;102112.22;5055435;28;20458;-41
2022/09/06 04:53:28;;;;;;;4.90;3.90;;;;;;;15.79;78.14;102110.81;5045699;28;20446;-42
2022/09/06 04:55:57;;;;;;;6.53;4.43;;;;;;;15.80;77.24;102109.75;5050140;28;20804;-42
2022/09/06 04:58:25;;;;;;;3.43;3.17;;;;;;;15.85;76.94;102110.03;5054677;28;20471;-42
2022/09/06 05:00:52;;;;;;;4.00;3.60;;;;;;;15.84;76.51;102116.41;5055316;28;20554;-41
2022/09/06 05:03:22;;;;;;;4.90;3.67;;;;;;;15.89;76.60;102115.81;5055485;28;20431;-42
2022/09/06 05:05:49;;;;;;;4.43;4.03;;;;;;;15.88;76.12;102116.84;5055685;28;20458;-42
2022/09/06 05:08:17;;;;;;;3.97;3.70;;;;;;;15.94;76.33;102106.13;5055187;28;20428;-39
2022/09/06 05:10:45;;;;;;;4.27;3.97;;;;;;;15.97;76.17;102108.44;5054993;28;20471;-41
2022/09/06 05:13:12;;;;;;;4.87;4.67;;;;;;;15.98;75.98;102098.47;5055891;28;20431;-41
2022/09/06 05:15:40;;;;;;;6.40;4.60;;;;;;;16.00;75.67;102110.72;5055508;28;20442;-43
2022/09/06 05:18:08;;;;;;;7.40;4.70;;;;;;;16.05;75.54;102108.25;5055253;28;20475;-42
2022/09/06 05:20:43;;;;;;;5.53;4.50;;;;;;;16.08;75.35;102108.88;5054535;28;20471;-42
2022/09/06 05:23:11;;;;;;;4.60;4.40;;;;;;;16.07;75.05;102108.03;5054745;28;20431;-45
2022/09/06 05:25:38;;;;;;;4.63;4.10;;;;;;;16.13;74.96;102106.44;5054827;28;20439;-45
2022/09/06 05:28:06;;;;;;;4.20;4.00;;;;;;;16.16;74.44;102098.78;5055288;28;20423;-44
2022/09/06 05:30:33;;;;;;;4.30;3.90;;;;;;;16.19;74.05;102100.25;5054043;28;20482;-44
2022/09/06 05:33:01;;;;;;;4.80;4.57;;;;;;;16.20;73.75;102096.53;5054282;28;20459;-46
2022/09/06 05:35:29;;;;;;;4.00;3.80;;;;;;;16.24;73.24;102095.94;5055148;28;20948;-43
2022/09/06 05:37:58;;;;;;;4.07;3.77;;;;;;;16.30;73.25;102096.97;5054483;28;20482;-41
2022/09/06 05:40:26;;;;;;;4.33;4.00;;;;;;;16.36;72.76;102096.19;5054152;28;20493;-46
2022/09/06 05:42:54;;;;;;;5.13;4.80;;;;;;;16.42;72.64;102090.81;5053800;28;20447;-44
2022/09/06 05:45:22;;;;;;;4.37;4.07;;;;;;;16.49;72.04;102099.72;5054132;28;20435;-43
2022/09/06 05:47:49;;;;;;;4.53;4.03;;;;;;;16.58;71.63;102097.72;5053949;28;20789;-43
2022/09/06 05:50:17;;;;;;;4.20;3.90;;;;;;;16.61;71.04;102102.69;5053322;28;20463;-46
2022/09/06 05:52:46;;;;;;;10.07;4.97;;;;;;;16.66;71.24;102096.72;5045554;28;20458;-44
2022/09/06 05:55:15;;;;;;;4.13;3.83;;;;;;;16.71;70.86;102097.75;5045015;28;20433;-44
2022/09/06 05:57:43;;;;;;;4.23;3.83;;;;;;;16.81;70.99;102102.75;5052957;28;20885;-43
2022/09/06 06:00:12;;;;;;;3.87;3.63;;;;;;;17.14;70.32;102101.75;5052702;28;20459;-41
2022/09/06 06:02:39;;;;;;;4.20;4.00;;;;;;;17.59;69.84;102094.69;5052660;28;20451;-44
2022/09/06 06:05:08;;;;;;;4.63;4.23;;;;;;;17.91;65.86;102100.25;5052380;28;20431;-45
2022/09/06 06:07:36;;;;;;;4.60;4.20;;;;;;;18.18;65.36;102093.72;5052786;28;20438;-44
2022/09/06 06:10:04;;;;;;;4.67;4.00;;;;;;;18.25;64.69;102089.09;5051307;28;20463;-45
2022/09/06 06:12:33;;;;;;;3.23;3.13;;;;;;;18.37;63.83;102092.78;5052301;28;20451;-44
2022/09/06 06:15:01;;;;;;;4.70;3.33;;;;;;;18.69;63.18;102083.72;5052284;28;20936;-43
2022/09/06 06:17:28;;;;;;;3.93;3.53;;;;;;;19.12;62.08;102091.91;5052382;28;20430;-45
2022/09/06 06:19:57;;;;;;;3.43;3.33;;;;;;;19.43;60.26;102092.94;5051924;28;20482;-46
2022/09/06 06:22:24;;;;;;;3.93;3.67;;;;;;;19.63;58.61;102086.28;5052157;28;20450;-46
2022/09/06 06:24:52;;;;;;;4.20;4.00;;;;;;;19.89;58.38;102090.63;5052318;28;20438;-45
2022/09/06 06:27:20;;;;;;;4.07;3.87;;;;;;;19.90;56.19;102092.25;5052675;28;20430;-43
2022/09/06 06:29:49;;;;;;;5.53;3.53;;;;;;;20.22;56.22;102085.59;5051578;28;20974;-42
2022/09/06 06:32:17;;;;;;;4.40;3.10;;;;;;;20.82;56.90;102088.34;5051844;28;20468;-43
2022/09/06 06:34:44;;;;;;;3.30;3.10;;;;;;;21.09;53.48;102083.34;5052845;28;20434;-46
2022/09/06 06:37:12;;;;;;;5.23;3.63;;;;;;;21.38;53.59;102080.59;5052304;28;20438;-43
2022/09/06 06:39:40;;;;;;;3.90;3.50;;;;;;;21.49;50.35;102085.19;5051688;28;21006;-42
2022/09/06 06:42:07;;;;;;;5.90;3.20;;;;;;;21.35;51.27;102086.47;5052336;28;20461;-42
2022/09/06 06:44:35;;;;;;;3.30;3.00;;;;;;;21.50;52.00;102084.09;5052319;28;20430;-42
2022/09/06 06:47:05;;;;;;;3.60;3.30;;;;;;;21.99;50.96;102090.09;5052580;28;20438;-41
2022/09/06 06:49:33;;;;;;;4.10;3.23;;;;;;;21.94;49.55;102088.13;5052134;28;20427;-44
2022/09/06 06:52:01;;;;;;;3.83;3.10;;;;;;;22.00;50.21;102094.47;5046389;28;20454;-45
2022/09/06 06:54:29;;;;;;;3.73;3.43;;;;;;;21.82;50.52;102090.00;5043040;28;20439;-44
2022/09/06 06:56:57;;;;;;;3.70;3.40;;;;;;;21.69;49.63;102083.97;5052159;28;20426;-44
2022/09/06 06:59:24;;;;;;;6.80;3.57;;;;;;;21.22;50.54;102094.00;5051868;28;20474;-45
2022/09/06 07:01:52;;;;;;;4.70;3.37;;;;;;;21.26;51.54;102084.34;5051662;28;20450;-44
2022/09/06 07:04:21;;;;;;;3.97;3.77;;;;;;;21.14;49.21;102072.66;5052129;28;20438;-43
2022/09/06 07:06:51;;;;;;;3.43;3.10;;;;;;;21.37;50.16;102086.22;5051948;28;20950;-44
2022/09/06 07:09:39;;;;;;;3.80;3.60;;;;;;;21.62;49.13;102083.28;5051538;28;20544;-43
2022/09/06 07:12:26;;;;;;;3.53;3.30;;;;;;;21.49;49.61;102082.47;5051662;28;20455;-44
2022/09/06 07:14:54;;;;;;;3.53;3.07;;;;;;;21.38;49.26;102086.00;5052046;28;20811;-41
2022/09/06 07:17:22;;;;;;;3.93;3.73;;;;;;;21.05;49.64;102076.75;5052000;28;20446;-43
2022/09/06 07:19:51;;;;;;;3.57;3.37;;;;;;;21.18;49.37;102068.41;5051226;28;20459;-43
2022/09/06 07:22:39;;;;;;;3.53;2.90;;;;;;;21.45;49.46;102073.13;5054139;28;20453;-42
2022/09/06 07:25:09;;;;;;;4.03;3.63;;;;;;;21.28;49.28;102074.91;5056087;28;20423;-42
2022/09/06 07:27:36;;;;;;;3.67;3.37;;;;;;;21.14;49.61;102070.78;5055890;28;20440;-41
2022/09/06 07:30:13;;;;;;;3.67;3.47;;;;;;;20.89;50.55;102073.66;5055402;28;20544;-43
2022/09/06 07:32:40;;;;;;;4.30;3.20;;;;;;;21.14;50.84;102064.53;5055427;28;20463;-45
2022/09/06 07:35:11;;;;;;;4.20;3.90;;;;;;;21.32;51.33;102059.00;5055866;28;20442;-44
2022/09/06 07:37:38;;;;;;;4.07;3.77;;;;;;;20.97;50.28;102057.03;5055502;28;20817;-44
2022/09/06 07:40:07;;;;;;;3.20;3.10;;;;;;;20.83;50.88;102069.16;5055062;28;20470;-44
2022/09/06 07:42:35;;;;;;;8.10;4.23;;;;;;;20.86;51.63;102071.41;5055175;28;20598;-42
2022/09/06 07:45:03;;;;;;;4.00;3.40;;;;;;;20.70;51.59;102060.38;5055256;28;20430;-43
2022/09/06 07:47:31;;;;;;;4.20;3.90;;;;;;;20.78;51.38;102060.91;5055478;28;20446;-44
2022/09/06 07:50:21;;;;;;;3.70;3.50;;;;;;;21.03;50.60;102060.69;5054801;28;20512;-42
2022/09/06 07:53:10;;;;;;;4.07;3.87;;;;;;;21.04;50.28;102056.91;5047257;28;20443;-43
2022/09/06 07:55:42;;;;;;;4.03;3.63;;;;;;;20.93;50.25;102053.16;5040432;28;20861;-41
2022/09/06 07:58:10;;;;;;;4.47;4.27;;;;;;;21.07;49.72;102050.19;5055106;28;20932;-43
2022/09/06 08:00:39;;;;;;;4.23;3.90;;;;;;;20.99;50.00;102062.22;5054718;28;20463;-41
2022/09/06 08:03:07;;;;;;;4.93;4.53;;;;;;;20.98;49.66;102057.84;5055098;28;20549;-41
2022/09/06 08:05:37;;;;;;;4.40;4.00;;;;;;;20.90;50.49;102067.16;5055199;28;20649;-44
2022/09/06 08:08:25;;;;;;;3.93;3.73;;;;;;;20.90;50.01;102064.47;5054967;28;20819;-43
2022/09/06 08:11:12;;;;;;;4.03;3.80;;;;;;;20.54;50.84;102056.47;5054410;28;20482;-43
2022/09/06 08:13:41;;;;;;;6.10;3.97;;;;;;;20.81;51.17;102063.13;5054972;28;20438;-41
2022/09/06 08:16:10;;;;;;;4.50;4.10;;;;;;;20.67;50.65;102069.00;5054998;28;20434;-43
2022/09/06 08:18:38;;;;;;;6.43;4.10;;;;;;;20.79;51.10;102065.25;5055114;28;20434;-41
2022/09/06 08:21:09;;;;;;;3.80;3.60;;;;;;;20.69;51.60;102066.88;5054525;28;20463;-43
2022/09/06 08:23:42;;;;;;;3.70;3.60;;;;;;;20.86;51.09;102067.84;5054706;28;20518;-43
2022/09/06 08:26:09;;;;;;;4.93;4.33;;;;;;;20.85;50.43;102071.63;5054919;28;20462;-46
2022/09/06 08:28:37;;;;;;;7.97;4.13;;;;;;;20.74;49.85;102070.53;5054694;28;20442;-43
2022/09/06 08:31:06;;;;;;;4.37;3.90;;;;;;;20.74;50.66;102077.84;5054182;28;20836;-41
2022/09/06 08:33:33;;;;;;;3.70;3.40;;;;;;;20.77;50.38;102070.06;5053975;28;20431;-43
2022/09/06 08:36:01;;;;;;;4.73;4.30;;;;;;;20.88;50.08;102071.97;5054796;28;20811;-44
2022/09/06 08:38:31;;;;;;;4.00;3.53;;;;;;;21.01;50.05;102062.81;5054768;28;20442;-41
2022/09/06 08:41:07;;;;;;;3.80;3.60;;;;;;;20.97;50.36;102067.88;5054776;28;20975;-40
2022/09/06 08:43:36;;;;;;;6.17;3.70;;;;;;;21.25;49.84;102069.94;5054605;28;20525;-40
2022/09/06 08:46:04;;;;;;;3.93;3.70;;;;;;;21.24;48.95;102075.59;5054720;28;20435;-43
2022/09/06 08:48:35;;;;;;;3.70;3.50;;;;;;;21.46;48.81;102063.94;5054318;28;20458;-42
2022/09/06 08:51:36;;;;;;;4.27;3.97;;;;;;;21.25;48.21;102047.41;5053678;28;20547;-44
2022/09/06 08:54:15;;;;;;;3.47;3.30;;;;;;;21.26;48.62;102057.22;5037850;28;20470;-44
2022/09/06 08:56:59;;;;;;;3.73;3.43;;;;;;;21.30;49.07;102066.50;5014321;28;20919;-41
2022/09/06 08:59:29;;;;;;;4.03;3.57;;;;;;;21.34;48.18;102049.53;5013925;28;20443;-42
2022/09/06 09:02:07;;;;;;;3.80;3.50;;;;;;;21.48;48.00;102059.09;5013821;28;20456;-42
2022/09/06 09:04:38;;;;;;;3.73;3.53;;;;;;;21.64;48.57;102067.59;5014222;28;20838;-40
2022/09/06 09:07:21;;;;;;;3.57;3.37;;;;;;;21.68;47.55;102064.16;5014136;28;20475;-45
2022/09/06 09:09:52;;;;;;;5.23;3.70;;;;;;;21.50;47.75;102053.44;5013569;28;20453;-43
2022/09/06 09:12:23;;;;;;;4.03;3.73;;;;;;;21.20;49.33;102086.13;5013725;28;20810;-44
2022/09/06 09:14:55;;;;;;;5.70;3.80;;;;;;;21.19;49.16;102057.31;5013640;28;20946;-42
2022/09/06 09:17:27;;;;;;;7.73;3.80;;;;;;;21.72;47.79;102059.06;5036829;23;20848;-54
2022/09/06 09:19:56;;;;;;;4.00;3.60;;;;;;;21.80;47.79;102056.00;5013096;28;20473;-49
2022/09/06 09:22:25;;;;;;;4.33;3.73;;;;;;;22.22;47.21;102052.00;5013320;28;20440;-55
2022/09/06 09:24:57;;;;;;;4.90;4.00;;;;;;;22.44;46.28;102061.13;5013444;28;20786;-50
2022/09/06 09:27:28;;;;;;;7.77;3.73;;;;;;;22.22;46.06;102049.28;5013497;28;20452;-52
2022/09/06 09:30:01;;;;;;;4.33;3.80;;;;;;;22.27;47.02;102048.56;5013153;28;20829;-54
2022/09/06 09:32:48;;;;;;;4.10;3.77;;;;;;;22.19;47.13;102038.09;5013214;28;20855;-54
2022/09/06 09:35:21;;;;;;;3.80;3.47;;;;;;;22.34;48.38;102050.06;5013235;28;20527;-55
2022/09/06 09:37:55;;;;;;;3.73;3.43;;;;;;;22.42;48.31;102048.84;5013149;28;20794;-54
2022/09/06 09:40:37;;;;;;;3.97;3.50;;;;;;;22.55;47.35;102051.25;5012950;28;20482;-53
2022/09/06 09:43:16;;;;;;;4.03;3.73;;;;;;;22.75;46.55;102054.38;5013080;28;20432;-54
2022/09/06 09:45:45;;;;;;;4.50;3.90;;;;;;;22.67;46.98;102037.66;5012928;28;20460;-54
2022/09/06 09:48:20;;;;;;;4.23;3.97;;;;;;;22.35;47.04;102045.44;5012899;28;20443;-49
2022/09/06 09:50:49;;;;;;;4.83;4.23;;;;;;;22.45;47.60;102051.91;5012586;28;20460;-54
2022/09/06 09:53:20;;;;;;;4.23;3.93;;;;;;;22.26;46.13;102045.00;5020937;28;20507;-54
2022/09/06 09:55:55;;;;;;;4.33;4.03;;;;;;;22.38;47.54;102043.06;5025913;28;20455;-53
2022/09/06 09:58:35;;;;;;;7.73;4.20;;;;;;;22.02;49.42;102057.03;5032537;28;20510;-52
2022/09/06 10:01:11;;;;;;;4.33;3.93;;;;;;;22.58;48.34;102043.44;5032033;28;20825;-56
2022/09/06 10:03:39;;;;;;;5.63;3.70;;;;;;;22.79;47.45;102052.00;5032295;28;20435;-54
2022/09/06 10:06:27;;;;;;;4.30;3.43;;;;;;;23.20;46.63;102045.31;5032295;28;20826;-54
2022/09/06 10:09:19;;;;;;;4.23;3.63;;;;;;;22.68;46.62;102036.56;5032368;28;20848;-53
2022/09/06 10:11:56;;;;;;;3.93;3.63;;;;;;;22.35;46.48;102040.84;5031885;28;20860;-51
2022/09/06 10:14:29;;;;;;;3.87;3.50;;;;;;;22.34;46.42;102046.53;5032239;28;20446;-54
2022/09/06 10:16:58;;;;;;;4.30;3.80;;;;;;;22.08;47.29;102033.50;5032080;28;20498;-54
2022/09/06 10:19:40;;;;;;;5.67;3.37;;;;;;;21.95;46.39;102029.19;5031530;28;20431;-46
2022/09/06 10:22:27;;;;;;;3.60;3.40;;;;;;;21.92;46.99;102026.97;5032070;28;20471;-51
2022/09/06 10:25:21;;;;;;;3.73;3.43;;;;;;;22.04;48.16;102035.91;5032186;28;20439;-52
2022/09/06 10:28:07;;;;;;;5.87;3.40;;;;;;;22.12;46.05;102021.94;5031978;28;20442;-53
2022/09/06 10:30:57;;;;;;;4.70;3.43;;;;;;;21.92;46.36;102032.38;5031686;28;21010;-52
2022/09/06 10:33:36;;;;;;;5.47;3.53;;;;;;;21.95;46.65;102027.28;5031692;28;20925;-52
2022/09/06 10:36:04;;;;;;;4.07;3.77;;;;;;;21.97;47.47;102027.06;5031961;28;20455;-54
2022/09/06 10:38:43;;;;;;;7.87;3.80;;;;;;;22.01;46.99;102023.59;5032268;28;20432;-51
2022/09/06 10:41:32;;;;;;;8.57;3.20;;;;;;;21.75;48.00;102031.44;5031587;28;20487;-54
2022/09/06 10:44:10;;;;;;;3.93;3.53;;;;;;;21.82;48.54;102018.56;5031606;28;20432;-51
2022/09/06 10:46:40;;;;;;;3.93;3.63;;;;;;;21.94;48.31;102022.94;5031893;28;20460;-51
2022/09/06 10:49:13;;;;;;;4.97;3.93;;;;;;;22.01;47.26;102014.66;5031895;28;20978;-52
2022/09/06 10:51:45;;;;;;;4.47;4.07;;;;;;;22.33;47.65;102018.53;5028041;28;20544;-53
2022/09/06 10:54:15;;;;;;;4.30;3.90;;;;;;;22.18;47.95;102007.38;5019938;28;20458;-51
2022/09/06 10:56:48;;;;;;;3.93;3.60;;;;;;;22.24;48.49;102019.16;5031017;28;20459;-52
2022/09/06 10:59:22;;;;;;;4.43;4.23;;;;;;;22.32;47.85;102016.03;5031794;28;20825;-50
2022/09/06 11:02:16;;;;;;;4.43;4.07;;;;;;;22.11;48.34;102014.81;5031580;28;20483;-51
2022/09/06 11:04:46;;;;;;;4.27;3.33;;;;;;;22.13;48.21;101999.13;5031824;28;20442;-54
2022/09/06 11:07:40;;;;;;;4.20;3.90;;;;;;;21.92;48.33;102007.94;5031419;28;20463;-54
2022/09/06 11:10:16;;;;;;;4.57;3.80;;;;;;;21.70;48.74;102004.19;5030961;28;21019;-55
2022/09/06 11:12:49;;;;;;;3.77;3.57;;;;;;;21.62;48.99;102001.84;5031540;28;20437;-49
2022/09/06 11:15:20;;;;;;;5.10;3.73;;;;;;;21.56;49.66;102005.53;5031705;28;20446;-52
2022/09/06 11:17:53;;;;;;;4.03;3.83;;;;;;;21.53;49.81;102004.91;5031577;28;20420;-52
2022/09/06 11:20:26;;;;;;;5.57;3.83;;;;;;;21.55;49.59;101998.44;5031146;28;20455;-50
2022/09/06 11:23:27;;;;;;;4.33;3.97;;;;;;;21.27;50.67;101997.28;5031265;28;20470;-52
2022/09/06 11:26:23;;;;;;;4.37;4.00;;;;;;;21.14;51.65;102005.66;5031315;28;20546;-54
2022/09/06 11:28:54;;;;;;;4.53;3.87;;;;;;;21.15;52.36;101996.44;5029253;28;20801;-51
2022/09/06 11:31:25;;;;;;;4.40;3.33;;;;;;;21.31;52.77;101992.22;5030837;28;20835;-48
2022/09/06 11:34:22;;;;;;;5.97;4.23;;;;;;;21.41;53.33;102004.09;5031111;28;20937;-49
2022/09/06 11:36:52;;;;;;;4.03;3.67;;;;;;;21.32;53.92;101997.41;5031257;28;20456;-50
2022/09/06 11:39:32;;;;;;;5.57;3.57;;;;;;;21.05;54.48;101995.38;5031544;28;20431;-53
2022/09/06 11:42:39;;;;;;;4.27;3.87;;;;;;;21.26;53.51;101990.22;5030719;28;20828;-46
2022/09/06 11:45:20;;;;;;;4.83;3.80;;;;;;;21.24;53.47;101986.06;5031404;28;20458;-51
2022/09/06 11:47:50;;;;;;;5.07;4.50;;;;;;;21.17;54.03;101977.25;5031257;28;20477;-52